Terminal Aerodrome Forecast
Issued by NWS

Home | Current Version | Previous Version | Text Only | Print | Product List | Glossary On
Versions: 1 2 3 4 5 6 7 8 9 10 11 12 13 14 15 16 17 18 19 20 21 22 23 24 25
000
FTUS41 KBGM 251739 AAD
TAFITH
TAF AMD
KITH 251739Z 2518/2618 35006KT 4SM -SHRA BR OVC006
      TEMPO 2518/2522 -SHRA BR OVC002
     FM260000 09005KT P6SM OVC012
      TEMPO 2608/2612 5SM -SHRA OVC008
     FM261400 15008KT P6SM OVC012=

USA.gov is the U.S. government's official web portal to all federal, state and local government web resources and services.